createdAt,value
2017-08-15T00:00:49.202Z,0
2017-08-15T00:01:58.406Z,0
2017-08-15T00:03:07.616Z,0
2017-08-15T00:04:17.146Z,0
2017-08-15T00:05:26.354Z,0
2017-08-15T00:06:35.242Z,0
2017-08-15T00:07:45.253Z,0
2017-08-15T00:08:54.463Z,0
2017-08-15T00:10:03.994Z,0
2017-08-15T00:11:12.879Z,0
2017-08-15T00:12:22.087Z,0
2017-08-15T00:13:32.411Z,0
2017-08-15T00:14:41.616Z,0
2017-08-15T00:15:50.822Z,0
2017-08-15T00:17:00.029Z,0
2017-08-15T00:18:08.912Z,0
2017-08-15T00:19:17.975Z,0
2017-08-15T00:20:27.179Z,0
2017-08-15T00:21:36.391Z,0
2017-08-15T00:22:46.567Z,0
2017-08-15T00:23:55.453Z,0
2017-08-15T00:25:04.769Z,0
2017-08-15T00:26:14.300Z,0
2017-08-15T00:27:24.155Z,0
2017-08-15T00:28:33.684Z,0
2017-08-15T00:29:42.891Z,0
2017-08-15T00:30:52.429Z,0
2017-08-15T00:32:02.005Z,0
2017-08-15T00:33:11.209Z,0
2017-08-15T00:34:21.385Z,0
2017-08-15T00:35:30.593Z,0
2017-08-15T00:36:39.955Z,0
2017-08-15T00:37:48.838Z,0
2017-08-15T00:38:58.368Z,0
2017-08-15T00:40:07.576Z,0
2017-08-15T00:41:17.107Z,0
2017-08-15T00:42:26.287Z,0
2017-08-15T00:43:36.145Z,0
2017-08-15T00:44:45.996Z,0
2017-08-15T00:45:55.208Z,0
2017-08-15T00:47:05.064Z,0
2017-08-15T00:48:14.966Z,0
2017-08-15T00:49:24.823Z,0
2017-08-15T00:50:34.350Z,0
2017-08-15T00:51:44.527Z,0
2017-08-15T00:52:54.055Z,0
2017-08-15T00:54:03.312Z,0
2017-08-15T00:55:12.525Z,0
2017-08-15T00:56:22.056Z,0
2017-08-15T00:57:31.901Z,0
2017-08-15T00:58:41.106Z,0
2017-08-15T00:59:50.363Z,0
2017-08-15T01:00:59.925Z,0
2017-08-15T01:02:09.132Z,0
2017-08-15T01:03:18.336Z,0
2017-08-15T01:04:27.545Z,0
2017-08-15T01:05:37.499Z,0
2017-08-15T01:06:47.347Z,0
2017-08-15T01:07:56.229Z,0
2017-08-15T01:09:05.758Z,0
2017-08-15T01:10:14.640Z,0
2017-08-15T01:11:23.782Z,0
2017-08-15T01:12:32.672Z,0
2017-08-15T01:13:41.553Z,0
2017-08-15T01:14:50.762Z,0
2017-08-15T01:16:00.611Z,0
2017-08-15T01:17:10.065Z,0
2017-08-15T01:18:19.589Z,0
2017-08-15T01:19:28.795Z,0
2017-08-15T01:20:38.004Z,0
2017-08-15T01:21:47.538Z,0
2017-08-15T01:22:57.369Z,0
2017-08-15T01:24:06.900Z,0
2017-08-15T01:25:16.109Z,0
2017-08-15T01:26:25.966Z,0
2017-08-15T01:27:35.823Z,0
2017-08-15T01:28:45.184Z,0
2017-08-15T01:29:54.712Z,0
2017-08-15T01:31:03.916Z,0
2017-08-15T01:32:13.783Z,0
2017-08-15T01:33:23.316Z,0
2017-08-15T01:34:32.521Z,0
2017-08-15T01:35:41.726Z,0
2017-08-15T01:36:51.253Z,0
2017-08-15T01:38:00.456Z,0
2017-08-15T01:39:10.311Z,0
2017-08-15T01:40:19.193Z,0
2017-08-15T01:41:28.399Z,0
2017-08-15T01:42:37.975Z,0
2017-08-15T01:43:47.184Z,0
2017-08-15T01:44:56.714Z,0
2017-08-15T01:46:06.673Z,0
2017-08-15T01:47:16.203Z,0
2017-08-15T01:48:25.415Z,0
2017-08-15T01:49:34.944Z,0
2017-08-15T01:50:44.798Z,0
2017-08-15T01:51:54.328Z,0
2017-08-15T01:53:03.535Z,0
2017-08-15T01:54:13.389Z,0
2017-08-15T01:55:22.941Z,0
2017-08-15T01:56:32.469Z,0
2017-08-15T01:57:41.732Z,0
2017-08-15T01:58:50.613Z,0
2017-08-15T02:00:00.143Z,0
2017-08-15T02:01:09.995Z,0
2017-08-15T02:02:19.226Z,0
2017-08-15T02:03:28.437Z,0
2017-08-15T02:04:37.974Z,0
2017-08-15T02:05:47.826Z,0
2017-08-15T02:06:57.029Z,0
2017-08-15T02:08:06.885Z,0
2017-08-15T02:09:15.915Z,0
2017-08-15T02:10:24.794Z,0
2017-08-15T02:11:34.322Z,0
2017-08-15T02:12:43.527Z,0
2017-08-15T02:13:52.734Z,0
2017-08-15T02:15:02.045Z,0
2017-08-15T02:16:11.252Z,0
2017-08-15T02:17:20.784Z,0
2017-08-15T02:18:30.309Z,0
2017-08-15T02:19:40.177Z,0
2017-08-15T02:20:49.862Z,0
2017-08-15T02:21:59.409Z,0
2017-08-15T02:23:09.275Z,0
2017-08-15T02:24:18.161Z,0
2017-08-15T02:25:27.368Z,0
2017-08-15T02:26:36.623Z,0
2017-08-15T02:27:45.826Z,0
2017-08-15T02:28:55.030Z,0
2017-08-15T02:30:04.236Z,0
2017-08-15T02:31:13.768Z,0
2017-08-15T02:32:23.471Z,0
2017-08-15T02:33:33.322Z,0
2017-08-15T02:34:42.529Z,0
2017-08-15T02:35:51.418Z,0
2017-08-15T02:37:00.948Z,0
2017-08-15T02:38:10.645Z,0
2017-08-15T02:39:20.182Z,0
2017-08-15T02:40:29.722Z,0
2017-08-15T02:41:38.617Z,0
2017-08-15T02:42:48.803Z,0
2017-08-15T02:43:58.494Z,0
2017-08-15T02:45:07.696Z,0
2017-08-15T02:46:16.901Z,0
2017-08-15T02:47:25.800Z,0
2017-08-15T02:48:35.413Z,0
2017-08-15T02:49:44.465Z,0
2017-08-15T02:50:54.007Z,0
2017-08-15T02:52:03.217Z,0
2017-08-15T02:53:13.393Z,0
2017-08-15T02:54:23.250Z,0
2017-08-15T02:55:32.603Z,0
2017-08-15T02:56:41.807Z,0
2017-08-15T02:57:51.657Z,0
2017-08-15T02:59:01.193Z,0
2017-08-15T03:00:10.411Z,0
2017-08-15T03:01:20.377Z,0
2017-08-15T03:02:29.905Z,0
2017-08-15T03:03:39.112Z,0
2017-08-15T03:04:48.642Z,0
2017-08-15T03:05:57.846Z,0
2017-08-15T03:07:07.376Z,0
2017-08-15T03:08:16.584Z,0
2017-08-15T03:09:26.118Z,0
2017-08-15T03:10:35.002Z,0
2017-08-15T03:11:44.211Z,0
2017-08-15T03:12:53.467Z,0
2017-08-15T03:14:02.673Z,0
2017-08-15T03:15:11.885Z,0
2017-08-15T03:16:20.766Z,0
2017-08-15T03:17:30.308Z,0
2017-08-15T03:18:39.992Z,0
2017-08-15T03:19:49.199Z,0
2017-08-15T03:20:58.403Z,0
2017-08-15T03:22:07.612Z,0
2017-08-15T03:23:17.792Z,0
2017-08-15T03:24:27.619Z,0
2017-08-15T03:25:37.478Z,0
2017-08-15T03:26:47.011Z,0
2017-08-15T03:27:56.225Z,0
2017-08-15T03:29:05.437Z,0
2017-08-15T03:30:15.633Z,0
2017-08-15T03:31:24.845Z,0
2017-08-15T03:32:34.375Z,0
2017-08-15T03:33:43.909Z,0
2017-08-15T03:34:52.791Z,0
2017-08-15T03:36:02.646Z,0
2017-08-15T03:37:12.180Z,0
2017-08-15T03:38:21.711Z,0
2017-08-15T03:39:30.925Z,0
2017-08-15T03:40:40.137Z,0
2017-08-15T03:41:49.718Z,0
2017-08-15T03:42:59.247Z,0
2017-08-15T03:44:08.776Z,0
2017-08-15T03:45:18.627Z,0
2017-08-15T03:46:27.835Z,0
2017-08-15T03:47:37.096Z,0
2017-08-15T03:48:46.626Z,0
2017-08-15T03:49:55.833Z,0
2017-08-15T03:51:05.370Z,0
2017-08-15T03:52:14.573Z,0
2017-08-15T03:53:23.930Z,0
2017-08-15T03:54:33.468Z,0
2017-08-15T03:55:43.318Z,0
2017-08-15T03:56:52.849Z,0
2017-08-15T03:58:02.700Z,0
2017-08-15T03:59:12.926Z,0
2017-08-15T04:00:22.465Z,5
2017-08-15T04:01:32.319Z,5
2017-08-15T04:02:41.529Z,5
2017-08-15T04:03:51.380Z,5
2017-08-15T04:05:00.585Z,5
2017-08-15T04:06:09.797Z,5
2017-08-15T04:07:19.006Z,5
2017-08-15T04:08:28.209Z,5
2017-08-15T04:09:37.093Z,5
2017-08-15T04:10:46.603Z,10
2017-08-15T04:11:56.132Z,10
2017-08-15T04:13:05.982Z,10
2017-08-15T04:14:15.189Z,10
2017-08-15T04:15:25.034Z,10
2017-08-15T04:16:34.397Z,10
2017-08-15T04:17:43.601Z,10
2017-08-15T04:18:52.808Z,15
2017-08-15T04:20:02.021Z,15
2017-08-15T04:21:11.559Z,15
2017-08-15T04:22:20.873Z,15
2017-08-15T04:23:30.088Z,20
2017-08-15T04:24:38.969Z,20
2017-08-15T04:25:47.866Z,20
2017-08-15T04:26:57.075Z,20
2017-08-15T04:28:06.906Z,20
2017-08-15T04:29:16.449Z,20
2017-08-15T04:30:26.303Z,20
2017-08-15T04:31:35.193Z,25
2017-08-15T04:32:44.077Z,25
2017-08-15T04:33:53.750Z,25
2017-08-15T04:35:02.954Z,25
2017-08-15T04:36:11.840Z,25
2017-08-15T04:37:21.378Z,25
2017-08-15T04:38:30.588Z,25
2017-08-15T04:39:39.952Z,30
2017-08-15T04:40:49.481Z,30
2017-08-15T04:41:58.685Z,30
2017-08-15T04:43:07.565Z,30
2017-08-15T04:44:16.795Z,30
2017-08-15T04:45:26.635Z,30
2017-08-15T04:46:35.841Z,35
2017-08-15T04:47:45.398Z,35
2017-08-15T04:48:54.307Z,35
2017-08-15T04:50:03.194Z,35
2017-08-15T04:51:12.880Z,40
2017-08-15T04:52:22.090Z,40
2017-08-15T04:53:30.969Z,40
2017-08-15T04:54:40.180Z,40
2017-08-15T04:55:49.711Z,45
2017-08-15T04:56:58.601Z,45
2017-08-15T04:58:07.806Z,45
2017-08-15T04:59:17.054Z,50
2017-08-15T05:00:26.636Z,50
2017-08-15T05:01:36.171Z,50
2017-08-15T05:02:45.384Z,55
2017-08-15T05:03:54.599Z,55
2017-08-15T05:05:03.484Z,55
2017-08-15T05:06:13.488Z,55
2017-08-15T05:07:22.378Z,55
2017-08-15T05:08:31.266Z,55
2017-08-15T05:09:40.475Z,55
2017-08-15T05:10:50.025Z,55
2017-08-15T05:11:59.804Z,60
2017-08-15T05:13:09.338Z,60
2017-08-15T05:14:18.867Z,60
2017-08-15T05:15:28.089Z,65
2017-08-15T05:16:36.979Z,65
2017-08-15T05:17:46.193Z,70
2017-08-15T05:18:55.399Z,70
2017-08-15T05:20:05.261Z,75
2017-08-15T05:21:15.122Z,75
2017-08-15T05:22:25.276Z,75
2017-08-15T05:23:34.811Z,80
2017-08-15T05:24:44.021Z,80
2017-08-15T05:25:53.226Z,85
2017-08-15T05:27:02.435Z,85
2017-08-15T05:28:12.457Z,90
2017-08-15T05:29:21.990Z,95
2017-08-15T05:30:30.881Z,95
2017-08-15T05:31:40.415Z,100
2017-08-15T05:32:49.962Z,100
2017-08-15T05:33:59.587Z,100
2017-08-15T05:35:08.475Z,100
2017-08-15T05:36:18.336Z,105
2017-08-15T05:37:27.865Z,105
2017-08-15T05:38:36.744Z,105
2017-08-15T05:39:46.424Z,105
2017-08-15T05:40:55.308Z,105
2017-08-15T05:42:04.189Z,105
2017-08-15T05:43:13.737Z,105
2017-08-15T05:44:23.264Z,110
2017-08-15T05:45:32.945Z,110
2017-08-15T05:46:42.807Z,110
2017-08-15T05:47:51.690Z,110
2017-08-15T05:49:00.574Z,115
2017-08-15T05:50:10.107Z,110
2017-08-15T05:51:19.041Z,115
2017-08-15T05:52:28.568Z,115
2017-08-15T05:53:37.452Z,115
2017-08-15T05:54:46.665Z,115
2017-08-15T05:55:55.875Z,115
2017-08-15T05:57:05.386Z,115
2017-08-15T05:58:14.595Z,115
2017-08-15T05:59:24.125Z,115
2017-08-15T06:00:33.663Z,115
2017-08-15T06:01:42.878Z,115
2017-08-15T06:02:52.184Z,120
2017-08-15T06:04:01.391Z,120
2017-08-15T06:05:11.252Z,125
2017-08-15T06:06:20.786Z,120
2017-08-15T06:07:30.320Z,120
2017-08-15T06:08:39.911Z,120
2017-08-15T06:09:49.117Z,120
2017-08-15T06:10:58.010Z,125
2017-08-15T06:12:07.219Z,125
2017-08-15T06:13:16.757Z,130
2017-08-15T06:14:26.694Z,125
2017-08-15T06:15:35.580Z,130
2017-08-15T06:16:45.114Z,125
2017-08-15T06:17:54.646Z,125
2017-08-15T06:19:03.854Z,125
2017-08-15T06:20:13.761Z,125
2017-08-15T06:21:23.290Z,125
2017-08-15T06:22:33.146Z,125
2017-08-15T06:23:42.358Z,130
2017-08-15T06:24:51.889Z,130
2017-08-15T06:26:01.667Z,130
2017-08-15T06:27:11.204Z,130
2017-08-15T06:28:21.070Z,130
2017-08-15T06:29:30.598Z,130
2017-08-15T06:30:40.456Z,130
2017-08-15T06:31:50.143Z,130
2017-08-15T06:32:59.674Z,130
2017-08-15T06:34:09.206Z,130
2017-08-15T06:35:18.413Z,130
2017-08-15T06:36:27.939Z,130
2017-08-15T06:37:37.149Z,135
2017-08-15T06:38:46.358Z,135
2017-08-15T06:39:55.582Z,135
2017-08-15T06:41:05.119Z,135
2017-08-15T06:42:14.980Z,135
2017-08-15T06:43:24.820Z,135
2017-08-15T06:44:34.030Z,135
2017-08-15T06:45:43.889Z,135
2017-08-15T06:46:54.387Z,135
2017-08-15T06:48:03.271Z,135
2017-08-15T06:49:12.563Z,140
2017-08-15T06:50:21.772Z,140
2017-08-15T06:51:31.642Z,140
2017-08-15T06:52:40.535Z,140
2017-08-15T06:53:50.069Z,140
2017-08-15T06:54:59.325Z,140
2017-08-15T06:56:08.855Z,140
2017-08-15T06:57:18.396Z,140
2017-08-15T06:58:27.280Z,140
2017-08-15T06:59:36.485Z,140
2017-08-15T07:00:46.077Z,140
2017-08-15T07:01:55.934Z,145
2017-08-15T07:03:05.790Z,145
2017-08-15T07:04:15.326Z,145
2017-08-15T07:05:24.858Z,145
2017-08-15T07:06:34.267Z,145
2017-08-15T07:07:43.471Z,145
2017-08-15T07:08:52.354Z,145
2017-08-15T07:10:01.572Z,145
2017-08-15T07:11:10.787Z,145
2017-08-15T07:12:20.368Z,145
2017-08-15T07:13:29.578Z,150
2017-08-15T07:14:38.792Z,150
2017-08-15T07:15:48.648Z,150
2017-08-15T07:16:57.863Z,150
2017-08-15T07:18:07.766Z,150
2017-08-15T07:19:16.649Z,150
2017-08-15T07:20:25.536Z,150
2017-08-15T07:21:35.070Z,155
2017-08-15T07:22:44.277Z,155
2017-08-15T07:23:53.913Z,155
2017-08-15T07:25:04.091Z,155
2017-08-15T07:26:13.955Z,155
2017-08-15T07:27:23.492Z,155
2017-08-15T07:28:33.019Z,160
2017-08-15T07:29:42.756Z,160
2017-08-15T07:30:52.617Z,160
2017-08-15T07:32:02.148Z,160
2017-08-15T07:33:11.676Z,160
2017-08-15T07:34:20.566Z,165
2017-08-15T07:35:30.103Z,160
2017-08-15T07:36:39.636Z,160
2017-08-15T07:37:49.171Z,160
2017-08-15T07:38:58.707Z,160
2017-08-15T07:40:08.563Z,165
2017-08-15T07:41:17.923Z,165
2017-08-15T07:42:27.463Z,170
2017-08-15T07:43:37.005Z,170
2017-08-15T07:44:46.545Z,175
2017-08-15T07:45:55.430Z,175
2017-08-15T07:47:05.167Z,175
2017-08-15T07:48:14.378Z,180
2017-08-15T07:49:23.591Z,180
2017-08-15T07:50:33.125Z,185
2017-08-15T07:51:42.667Z,190
2017-08-15T07:52:52.421Z,190
2017-08-15T07:54:02.276Z,195
2017-08-15T07:55:11.494Z,195
2017-08-15T07:56:21.357Z,195
2017-08-15T07:57:30.567Z,190
2017-08-15T07:58:39.600Z,200
2017-08-15T07:59:49.136Z,190
2017-08-15T08:00:58.991Z,190
2017-08-15T08:02:08.204Z,185
2017-08-15T08:03:17.738Z,185
2017-08-15T08:04:26.775Z,180
2017-08-15T08:05:35.664Z,185
2017-08-15T08:06:44.870Z,190
2017-08-15T08:07:54.408Z,200
2017-08-15T08:09:03.302Z,205
2017-08-15T08:10:12.563Z,205
2017-08-15T08:11:21.776Z,210
2017-08-15T08:12:30.988Z,215
2017-08-15T08:13:40.196Z,210
2017-08-15T08:14:49.404Z,205
2017-08-15T08:15:58.769Z,200
2017-08-15T08:17:08.626Z,190
2017-08-15T08:18:17.511Z,185
2017-08-15T08:19:26.393Z,185
2017-08-15T08:20:35.603Z,180
2017-08-15T08:21:44.961Z,180
2017-08-15T08:22:54.500Z,185
2017-08-15T08:24:04.034Z,195
2017-08-15T08:25:13.569Z,200
2017-08-15T08:26:22.776Z,205
2017-08-15T08:27:32.254Z,215
2017-08-15T08:28:41.485Z,215
2017-08-15T08:29:50.695Z,205
2017-08-15T08:31:00.554Z,195
2017-08-15T08:32:09.765Z,195
2017-08-15T08:33:19.129Z,195
2017-08-15T08:34:28.660Z,195
2017-08-15T08:35:38.203Z,195
2017-08-15T08:36:47.090Z,195
2017-08-15T08:37:56.299Z,195
2017-08-15T08:39:05.668Z,195
2017-08-15T08:40:15.201Z,195
2017-08-15T08:41:25.056Z,195
2017-08-15T08:42:34.599Z,195
2017-08-15T08:43:43.837Z,195
2017-08-15T08:44:53.248Z,195
2017-08-15T08:46:02.462Z,190
2017-08-15T08:47:11.994Z,190
2017-08-15T08:48:21.203Z,190
2017-08-15T08:49:30.738Z,190
2017-08-15T08:50:40.098Z,190
2017-08-15T08:51:49.309Z,190
2017-08-15T08:52:58.521Z,190
2017-08-15T08:54:07.415Z,190
2017-08-15T08:55:16.649Z,195
2017-08-15T08:56:26.617Z,195
2017-08-15T08:57:35.508Z,195
2017-08-15T08:58:44.720Z,195
2017-08-15T08:59:53.942Z,195
2017-08-15T09:01:03.808Z,195
2017-08-15T09:02:13.342Z,200
2017-08-15T09:03:23.225Z,200
2017-08-15T09:04:32.437Z,200
2017-08-15T09:05:41.675Z,205
2017-08-15T09:06:51.215Z,205
2017-08-15T09:08:00.434Z,210
2017-08-15T09:09:09.646Z,215
2017-08-15T09:10:19.180Z,215
2017-08-15T09:11:28.393Z,220
2017-08-15T09:12:37.605Z,225
2017-08-15T09:13:47.310Z,230
2017-08-15T09:14:56.845Z,235
2017-08-15T09:16:06.703Z,245
2017-08-15T09:17:15.921Z,255
2017-08-15T09:18:25.780Z,260
2017-08-15T09:19:35.263Z,260
2017-08-15T09:20:45.119Z,280
2017-08-15T09:21:54.684Z,290
2017-08-15T09:23:04.219Z,290
2017-08-15T09:24:13.756Z,305
2017-08-15T09:25:23.172Z,320
2017-08-15T09:26:33.033Z,335
2017-08-15T09:27:42.245Z,345
2017-08-15T09:28:52.432Z,340
2017-08-15T09:30:02.300Z,325
2017-08-15T09:31:12.820Z,310
2017-08-15T09:32:22.366Z,325
2017-08-15T09:33:32.227Z,330
2017-08-15T09:34:41.443Z,355
2017-08-15T09:35:50.655Z,390
2017-08-15T09:37:00.398Z,415
2017-08-15T09:38:10.261Z,440
2017-08-15T09:39:19.153Z,480
2017-08-15T09:40:28.692Z,525
2017-08-15T09:41:37.586Z,565
2017-08-15T09:42:47.548Z,600
2017-08-15T09:43:56.436Z,595
2017-08-15T09:45:06.372Z,585
2017-08-15T09:46:16.252Z,555
2017-08-15T09:47:25.469Z,525
2017-08-15T09:48:35.905Z,495
2017-08-15T09:49:45.452Z,485
2017-08-15T09:50:54.346Z,475
2017-08-15T09:52:04.216Z,480
2017-08-15T09:53:13.753Z,485
2017-08-15T09:54:23.124Z,490
2017-08-15T09:55:32.664Z,500
2017-08-15T09:56:41.553Z,505
2017-08-15T09:57:51.091Z,510
2017-08-15T09:59:00.634Z,500
2017-08-15T10:00:11.022Z,530
2017-08-15T10:01:20.244Z,535
2017-08-15T10:02:29.782Z,560
2017-08-15T10:03:39.970Z,595
2017-08-15T10:04:49.835Z,610
2017-08-15T10:06:00.014Z,625
2017-08-15T10:07:09.548Z,620
2017-08-15T10:08:18.763Z,630
2017-08-15T10:09:28.638Z,635
2017-08-15T10:10:38.170Z,640
2017-08-15T10:11:48.186Z,655
2017-08-15T10:12:58.397Z,625
2017-08-15T10:14:08.259Z,610
2017-08-15T10:15:17.503Z,625
2017-08-15T10:16:26.410Z,620
2017-08-15T10:17:36.101Z,610
2017-08-15T10:18:45.639Z,595
2017-08-15T10:19:55.185Z,620
2017-08-15T10:21:05.054Z,615
2017-08-15T10:22:13.947Z,610
2017-08-15T10:23:23.796Z,625
2017-08-15T10:24:33.027Z,600
2017-08-15T10:25:43.554Z,600
2017-08-15T10:26:53.442Z,605
2017-08-15T10:28:02.984Z,600
2017-08-15T10:29:12.998Z,600
2017-08-15T10:30:21.902Z,605
2017-08-15T10:31:31.114Z,590
2017-08-15T10:32:40.978Z,575
2017-08-15T10:33:50.848Z,550
2017-08-15T10:35:01.025Z,530
2017-08-15T10:36:10.565Z,530
2017-08-15T10:37:20.118Z,520
2017-08-15T10:38:29.658Z,505
2017-08-15T10:39:39.522Z,490
2017-08-15T10:40:49.567Z,480
2017-08-15T10:41:59.429Z,475
2017-08-15T10:43:09.291Z,475
2017-08-15T10:44:18.513Z,475
2017-08-15T10:45:28.074Z,480
2017-08-15T10:46:38.517Z,485
2017-08-15T10:47:48.057Z,485
2017-08-15T10:48:57.929Z,475
2017-08-15T10:50:07.792Z,490
2017-08-15T10:51:17.974Z,500
2017-08-15T10:52:27.945Z,520
2017-08-15T10:53:37.484Z,525
2017-08-15T10:54:47.025Z,525
2017-08-15T10:55:56.590Z,540
2017-08-15T10:57:06.133Z,565
2017-08-15T10:58:15.988Z,575
2017-08-15T10:59:25.523Z,585
2017-08-15T11:00:35.061Z,585
2017-08-15T11:01:44.602Z,600
2017-08-15T11:02:54.146Z,610
2017-08-15T11:04:03.193Z,615
2017-08-15T11:05:12.739Z,625
2017-08-15T11:06:22.277Z,635
2017-08-15T11:07:31.815Z,635
2017-08-15T11:08:41.679Z,640
2017-08-15T11:09:51.366Z,660
2017-08-15T11:11:00.585Z,655
2017-08-15T11:12:10.128Z,660
2017-08-15T11:13:19.343Z,665
2017-08-15T11:14:29.537Z,670
2017-08-15T11:15:38.862Z,680
2017-08-15T11:16:48.402Z,695
2017-08-15T11:17:57.943Z,685
2017-08-15T11:19:07.803Z,700
2017-08-15T11:20:17.342Z,685
2017-08-15T11:21:26.760Z,700
2017-08-15T11:22:35.662Z,685
2017-08-15T11:23:45.523Z,710
2017-08-15T11:24:54.741Z,685
2017-08-15T11:26:04.613Z,720
2017-08-15T11:27:14.359Z,690
2017-08-15T11:28:23.897Z,700
2017-08-15T11:29:33.763Z,715
2017-08-15T11:30:43.966Z,720
2017-08-15T11:31:52.860Z,700
2017-08-15T11:33:02.274Z,650
2017-08-15T11:34:12.146Z,685
2017-08-15T11:35:21.685Z,635
2017-08-15T11:36:30.905Z,650
2017-08-15T11:37:40.132Z,685
2017-08-15T11:38:50.047Z,665
2017-08-15T11:40:00.236Z,640
2017-08-15T11:41:09.455Z,575
2017-08-15T11:42:19.640Z,515
2017-08-15T11:43:29.213Z,520
2017-08-15T11:44:38.902Z,560
2017-08-15T11:45:48.773Z,630
2017-08-15T11:46:58.646Z,710
2017-08-15T11:48:07.865Z,740
2017-08-15T11:49:17.730Z,785
2017-08-15T11:50:26.724Z,825
2017-08-15T11:51:35.948Z,860
2017-08-15T11:52:44.845Z,860
2017-08-15T11:53:54.386Z,875
2017-08-15T11:55:03.934Z,875
2017-08-15T11:56:12.978Z,790
2017-08-15T11:57:22.201Z,770
2017-08-15T11:58:31.745Z,780
2017-08-15T11:59:40.961Z,755
2017-08-15T12:00:50.500Z,705
2017-08-15T12:02:00.617Z,695
2017-08-15T12:03:10.478Z,660
2017-08-15T12:04:19.376Z,660
2017-08-15T12:05:28.305Z,740
2017-08-15T12:06:37.854Z,780
2017-08-15T12:07:47.220Z,805
2017-08-15T12:08:56.766Z,820
2017-08-15T12:10:06.954Z,840
2017-08-15T12:11:16.179Z,855
2017-08-15T12:12:25.403Z,830
2017-08-15T12:13:34.769Z,765
2017-08-15T12:14:44.311Z,665
2017-08-15T12:15:53.533Z,660
2017-08-15T12:17:03.398Z,675
2017-08-15T12:18:12.619Z,705
2017-08-15T12:19:21.950Z,710
2017-08-15T12:20:31.171Z,760
2017-08-15T12:21:40.394Z,850
2017-08-15T12:22:49.630Z,875
2017-08-15T12:23:59.497Z,885
2017-08-15T12:25:09.038Z,900
2017-08-15T12:26:17.933Z,940
2017-08-15T12:27:27.800Z,960
2017-08-15T12:28:37.664Z,1010
2017-08-15T12:29:46.882Z,1035
2017-08-15T12:30:56.794Z,1025
2017-08-15T12:32:06.397Z,1135
2017-08-15T12:33:16.267Z,1000
2017-08-15T12:34:26.456Z,980
2017-08-15T12:35:36.374Z,965
2017-08-15T12:36:45.464Z,915
2017-08-15T12:37:55.330Z,880
2017-08-15T12:39:05.196Z,870
2017-08-15T12:40:15.067Z,865
2017-08-15T12:41:24.941Z,850
2017-08-15T12:42:33.883Z,920
2017-08-15T12:43:43.445Z,940
2017-08-15T12:44:52.992Z,900
2017-08-15T12:46:02.536Z,920
2017-08-15T12:47:11.763Z,875
2017-08-15T12:48:22.104Z,795
2017-08-15T12:49:31.322Z,850
2017-08-15T12:50:40.865Z,905
2017-08-15T12:51:50.406Z,895
2017-08-15T12:52:59.945Z,1120
2017-08-15T12:54:09.705Z,1180
2017-08-15T12:55:20.120Z,1125
2017-08-15T12:56:30.333Z,1090
2017-08-15T12:57:39.947Z,935
2017-08-15T12:58:49.485Z,875
2017-08-15T12:59:59.235Z,750
2017-08-15T13:01:09.455Z,665
2017-08-15T13:02:18.351Z,615
2017-08-15T13:03:27.578Z,625
2017-08-15T13:04:37.122Z,645
2017-08-15T13:05:46.498Z,650
2017-08-15T13:06:56.364Z,630
2017-08-15T13:08:06.236Z,625
2017-08-15T13:09:15.458Z,640
2017-08-15T13:10:25.190Z,645
2017-08-15T13:11:34.563Z,610
2017-08-15T13:12:44.431Z,625
2017-08-15T13:13:54.630Z,735
2017-08-15T13:15:04.819Z,865
2017-08-15T13:16:14.360Z,1035
2017-08-15T13:17:23.584Z,1625
2017-08-15T13:18:33.450Z,940
2017-08-15T13:19:43.643Z,1590
2017-08-15T13:20:53.510Z,1555
2017-08-15T13:22:03.054Z,1415
2017-08-15T13:23:12.425Z,2135
2017-08-15T13:24:21.970Z,1335
2017-08-15T13:25:31.183Z,1215
2017-08-15T13:26:40.400Z,990
2017-08-15T13:27:49.627Z,795
2017-08-15T13:28:59.698Z,635
2017-08-15T13:30:09.892Z,510
2017-08-15T13:31:18.797Z,430
2017-08-15T13:32:28.024Z,405
2017-08-15T13:33:37.251Z,430
2017-08-15T13:34:47.494Z,485
2017-08-15T13:35:57.362Z,570
2017-08-15T13:37:06.926Z,775
2017-08-15T13:38:16.145Z,890
2017-08-15T13:39:25.684Z,1105
2017-08-15T13:40:35.491Z,965
2017-08-15T13:41:44.386Z,915
2017-08-15T13:42:54.250Z,980
2017-08-15T13:44:03.803Z,1085
2017-08-15T13:45:13.670Z,1110
2017-08-15T13:46:23.631Z,1350
2017-08-15T13:47:32.529Z,1710
2017-08-15T13:48:41.755Z,1265
2017-08-15T13:49:51.297Z,945
2017-08-15T13:51:01.192Z,950
2017-08-15T13:52:11.209Z,905
2017-08-15T13:53:20.153Z,915
2017-08-15T13:54:29.385Z,1105
2017-08-15T13:55:39.255Z,945
2017-08-15T13:56:48.804Z,850
2017-08-15T13:57:58.031Z,730
2017-08-15T13:59:07.906Z,645
2017-08-15T14:00:17.453Z,605
2017-08-15T14:01:26.354Z,600
2017-08-15T14:02:35.895Z,615
2017-08-15T14:03:45.765Z,650
2017-08-15T14:04:55.311Z,640
2017-08-15T14:06:05.377Z,635
2017-08-15T14:07:14.934Z,635
2017-08-15T14:08:24.796Z,685
2017-08-15T14:09:34.986Z,670
2017-08-15T14:10:45.177Z,605
2017-08-15T14:11:55.044Z,560
2017-08-15T14:13:04.262Z,515
2017-08-15T14:14:13.486Z,490
2017-08-15T14:15:23.030Z,470
2017-08-15T14:16:32.895Z,485
2017-08-15T14:17:41.793Z,510
2017-08-15T14:18:50.691Z,520
2017-08-15T14:19:59.914Z,535
2017-08-15T14:21:09.134Z,555
2017-08-15T14:22:18.032Z,560
2017-08-15T14:23:27.688Z,565
2017-08-15T14:24:36.915Z,565
2017-08-15T14:25:46.133Z,545
2017-08-15T14:26:55.362Z,565
2017-08-15T14:28:04.906Z,590
2017-08-15T14:29:15.440Z,570
2017-08-15T14:30:24.669Z,535
2017-08-15T14:31:34.533Z,480
2017-08-15T14:32:44.078Z,450
2017-08-15T14:33:53.619Z,445
2017-08-15T14:35:03.811Z,425
2017-08-15T14:36:13.361Z,405
2017-08-15T14:37:23.548Z,415
2017-08-15T14:38:33.413Z,430
2017-08-15T14:39:42.950Z,425
2017-08-15T14:40:52.547Z,410
2017-08-15T14:42:02.417Z,395
2017-08-15T14:43:11.961Z,375
2017-08-15T14:44:20.859Z,380
2017-08-15T14:45:30.076Z,465
2017-08-15T14:46:39.925Z,460
2017-08-15T14:47:49.476Z,490
2017-08-15T14:48:58.368Z,580
2017-08-15T14:50:07.582Z,1800
2017-08-15T14:51:17.446Z,2150
2017-08-15T14:52:27.836Z,2480
2017-08-15T14:53:37.716Z,3110
2017-08-15T14:54:47.582Z,2990
2017-08-15T14:55:57.131Z,2815
2017-08-15T14:57:07.004Z,2540
2017-08-15T14:58:16.693Z,2655
2017-08-15T14:59:25.915Z,2005
2017-08-15T15:00:35.467Z,995
2017-08-15T15:01:45.025Z,2190
2017-08-15T15:02:54.569Z,2625
2017-08-15T15:04:04.503Z,2740
2017-08-15T15:05:13.405Z,2650
2017-08-15T15:06:22.966Z,2365
2017-08-15T15:07:32.294Z,770
2017-08-15T15:08:41.841Z,525
2017-08-15T15:09:51.392Z,395
2017-08-15T15:11:00.656Z,350
2017-08-15T15:12:10.871Z,320
2017-08-15T15:13:21.063Z,325
2017-08-15T15:14:30.608Z,325
2017-08-15T15:15:40.163Z,335
2017-08-15T15:16:49.396Z,345
2017-08-15T15:17:58.305Z,335
2017-08-15T15:19:07.868Z,350
2017-08-15T15:20:17.738Z,380
2017-08-15T15:21:26.961Z,420
2017-08-15T15:22:36.833Z,380
2017-08-15T15:23:46.380Z,320
2017-08-15T15:24:55.932Z,280
2017-08-15T15:26:04.831Z,265
2017-08-15T15:27:15.034Z,260
2017-08-15T15:28:24.585Z,240
2017-08-15T15:29:34.133Z,205
2017-08-15T15:30:43.678Z,180
2017-08-15T15:31:53.867Z,145
2017-08-15T15:33:03.416Z,120
2017-08-15T15:34:12.964Z,105
2017-08-15T15:35:22.332Z,95
2017-08-15T15:36:31.568Z,95
2017-08-15T15:37:41.113Z,95
2017-08-15T15:38:50.660Z,90
2017-08-15T15:39:59.557Z,85
2017-08-15T15:41:09.831Z,80
2017-08-15T15:42:19.380Z,70
2017-08-15T15:43:28.599Z,65
2017-08-15T15:44:37.816Z,60
2017-08-15T15:45:46.714Z,55
2017-08-15T15:46:55.949Z,60
2017-08-15T15:48:05.820Z,75
2017-08-15T15:49:15.032Z,85
2017-08-15T15:50:24.246Z,85
2017-08-15T15:51:33.473Z,75
2017-08-15T15:52:42.743Z,55
2017-08-15T15:53:52.613Z,50
2017-08-15T15:55:01.841Z,45
2017-08-15T15:56:11.383Z,40
2017-08-15T15:57:20.921Z,35
2017-08-15T15:58:29.959Z,35
2017-08-15T15:59:38.851Z,30
2017-08-15T16:00:48.393Z,30
2017-08-15T16:01:58.915Z,30
2017-08-15T16:03:08.140Z,25
2017-08-15T16:04:18.305Z,25
2017-08-15T16:05:28.486Z,30
2017-08-15T16:06:38.035Z,30
2017-08-15T16:07:47.252Z,35
2017-08-15T16:08:56.464Z,35
2017-08-15T16:10:06.001Z,25
2017-08-15T16:11:15.859Z,20
2017-08-15T16:12:24.750Z,10
2017-08-15T16:13:34.620Z,10
2017-08-15T16:14:43.837Z,10
2017-08-15T16:15:53.525Z,5
2017-08-15T16:17:02.739Z,5